Aniara — SKJC — position and weather

sailwx.info

Track history (hours):
 
Tides and Currents Weather Stations Pressure Air Temp Water Temp Dewpoint Dewpoint Depression Visibility Wind Speed Wind Dir Waves Ship Positions

Aniara

Last reported at 2014-Sep-30 23:33 UTC. Time now 2014-Sep-30 23:58 UTC.
Position N 40°32' W 070°58'.

Length 232 m; draft 9.8 m.

Type: Cargo ship. MMSI: 266282000.

Date/timePositionNaut miles runAvg speedWind from/ knotsBaromVisibWave heightAir tempDewpointWater temp
2014-Sep-30 23:33N 40°32' W 070°58'1615.9
2014-Sep-30 22:33N 40°33' W 070°36'1616.0
2014-Sep-30 21:33N 40°33' W 070°16'1616.3
2014-Sep-30 20:33N 40°33' W 069°54'1515.1
2014-Sep-30 19:33N 40°33' W 069°34'  
2014-Sep-21 20:33N 50°30' W 001°18'1313.6
2014-Sep-21 19:33N 50°36' W 000°58'1111.2
2014-Sep-21 18:33N 50°45' W 001°08'1010.2
2014-Sep-21 17:34N 50°51' W 001°21'3 2.6
2014-Sep-21 16:33N 50°53' W 001°24'0 0.0
2014-Sep-21 15:33N 50°53' W 001°24'0 0.0
2014-Sep-21 14:33N 50°53' W 001°24'0 0.0
2014-Sep-21 13:33N 50°53' W 001°24'0 0.0
2014-Sep-21 12:33N 50°53' W 001°24'0 0.0
2014-Sep-21 11:30N 50°53' W 001°24'0 0.0
2014-Sep-21 10:33N 50°53' W 001°24'0 0.0
2014-Sep-21 09:33N 50°53' W 001°24'0 0.0
2014-Sep-21 08:33N 50°53' W 001°24'0 0.0
2014-Sep-21 07:33N 50°53' W 001°24'0 0.0
2014-Sep-21 06:33N 50°53' W 001°24'5 4.7
2014-Sep-21 05:33N 50°50' W 001°19'1211.6
2014-Sep-21 04:33N 50°44' W 001°03'9 9.3
2014-Sep-21 03:34N 50°39' W 000°50'1212.4
2014-Sep-21 02:34N 50°36' W 000°31'1613.8
2014-Sep-21 01:24N 50°33' W 000°07'1214.0
2014-Sep-21 00:33N 50°34' E 000°12'1514.7
2014-Sep-20 23:33N 50°39' E 000°34'  
Track history (hours):
 
Tides and Currents Weather Stations Pressure Air Temp Water Temp Dewpoint Dewpoint Depression Visibility Wind Speed Wind Dir Waves Ship Positions

Aniara

Last reported at 2014-Sep-30 23:33 UTC. Time now 2014-Sep-30 23:58 UTC.
Position N 40°32' W 070°58'.

Length 232 m; draft 9.8 m.

Type: Cargo ship. MMSI: 266282000.

Date/timePositionNaut miles runAvg speedWind from/ knotsBaromVisibWave heightAir tempDewpointWater temp
2014-Sep-30 23:33N 40°32' W 070°58'1615.9
2014-Sep-30 22:33N 40°33' W 070°36'1616.0
2014-Sep-30 21:33N 40°33' W 070°16'1616.3
2014-Sep-30 20:33N 40°33' W 069°54'1515.1
2014-Sep-30 19:33N 40°33' W 069°34'  
2014-Sep-21 20:33N 50°30' W 001°18'1313.6
2014-Sep-21 19:33N 50°36' W 000°58'1111.2
2014-Sep-21 18:33N 50°45' W 001°08'1010.2
2014-Sep-21 17:34N 50°51' W 001°21'3 2.6
2014-Sep-21 16:33N 50°53' W 001°24'0 0.0
2014-Sep-21 15:33N 50°53' W 001°24'0 0.0
2014-Sep-21 14:33N 50°53' W 001°24'0 0.0
2014-Sep-21 13:33N 50°53' W 001°24'0 0.0
2014-Sep-21 12:33N 50°53' W 001°24'0 0.0
2014-Sep-21 11:30N 50°53' W 001°24'0 0.0
2014-Sep-21 10:33N 50°53' W 001°24'0 0.0
2014-Sep-21 09:33N 50°53' W 001°24'0 0.0
2014-Sep-21 08:33N 50°53' W 001°24'0 0.0
2014-Sep-21 07:33N 50°53' W 001°24'0 0.0
2014-Sep-21 06:33N 50°53' W 001°24'5 4.7
2014-Sep-21 05:33N 50°50' W 001°19'1211.6
2014-Sep-21 04:33N 50°44' W 001°03'9 9.3
2014-Sep-21 03:34N 50°39' W 000°50'1212.4
2014-Sep-21 02:34N 50°36' W 000°31'1613.8
2014-Sep-21 01:24N 50°33' W 000°07'1214.0
2014-Sep-21 00:33N 50°34' E 000°12'1514.7
2014-Sep-20 23:33N 50°39' E 000°34'  

Dump ship's entire track history